createdAt,value
2016-10-12T00:01:00.643Z,0
2016-10-12T00:02:11.862Z,0
2016-10-12T00:03:22.906Z,0
2016-10-12T00:04:33.988Z,0
2016-10-12T00:05:44.622Z,0
2016-10-12T00:07:37.435Z,0
2016-10-12T00:08:48.112Z,0
2016-10-12T00:09:59.124Z,0
2016-10-12T00:11:09.677Z,0
2016-10-12T00:12:20.269Z,0
2016-10-12T00:13:30.954Z,0
2016-10-12T00:14:41.574Z,0
2016-10-12T00:15:52.102Z,0
2016-10-12T00:17:02.667Z,0
2016-10-12T00:18:13.674Z,0
2016-10-12T00:19:24.395Z,0
2016-10-12T00:20:34.950Z,0
2016-10-12T00:21:45.504Z,0
2016-10-12T00:22:56.543Z,0
2016-10-12T00:24:07.116Z,0
2016-10-12T00:25:18.157Z,0
2016-10-12T00:26:29.748Z,0
2016-10-12T00:27:40.308Z,0
2016-10-12T00:28:51.439Z,0
2016-10-12T00:30:02.432Z,0
2016-10-12T00:31:13.620Z,0
2016-10-12T00:32:24.131Z,0
2016-10-12T00:33:34.738Z,0
2016-10-12T00:34:45.287Z,0
2016-10-12T00:35:55.903Z,0
2016-10-12T00:37:07.149Z,0
2016-10-12T00:38:17.792Z,0
2016-10-12T00:39:28.394Z,0
2016-10-12T00:40:38.941Z,0
2016-10-12T00:41:49.557Z,0
2016-10-12T00:43:00.305Z,0
2016-10-12T00:44:10.910Z,0
2016-10-12T00:45:21.559Z,0
2016-10-12T00:46:32.165Z,0
2016-10-12T00:47:42.857Z,0
2016-10-12T00:48:53.699Z,0
2016-10-12T00:50:04.259Z,0
2016-10-12T00:51:14.871Z,0
2016-10-12T00:52:25.540Z,0
2016-10-12T00:53:39.179Z,0
2016-10-12T00:54:49.799Z,0
2016-10-12T00:56:00.367Z,0
2016-10-12T00:57:10.961Z,0
2016-10-12T00:58:21.543Z,0
2016-10-12T00:59:32.131Z,0
2016-10-12T01:00:42.842Z,0
2016-10-12T01:01:53.438Z,0
2016-10-12T01:03:04.023Z,0
2016-10-12T01:04:14.611Z,0
2016-10-12T01:05:25.197Z,0
2016-10-12T01:06:35.781Z,0
2016-10-12T01:07:46.449Z,0
2016-10-12T01:08:57.061Z,0
2016-10-12T01:10:07.657Z,0
2016-10-12T01:11:18.247Z,0
2016-10-12T01:12:28.978Z,0
2016-10-12T01:13:39.587Z,0
2016-10-12T01:14:50.174Z,0
2016-10-12T01:16:00.757Z,0
2016-10-12T01:17:11.361Z,0
2016-10-12T01:18:21.946Z,0
2016-10-12T01:19:32.551Z,0
2016-10-12T01:20:43.135Z,0
2016-10-12T01:21:53.734Z,0
2016-10-12T01:23:04.325Z,0
2016-10-12T01:24:15.010Z,0
2016-10-12T01:25:25.608Z,0
2016-10-12T01:26:36.202Z,0
2016-10-12T01:27:46.786Z,0
2016-10-12T01:28:57.345Z,0
2016-10-12T01:30:07.955Z,0
2016-10-12T01:31:18.511Z,0
2016-10-12T01:32:29.073Z,0
2016-10-12T01:33:39.668Z,0
2016-10-12T01:34:50.242Z,0
2016-10-12T01:36:00.959Z,0
2016-10-12T01:37:11.486Z,0
2016-10-12T01:38:22.032Z,0
2016-10-12T01:39:32.596Z,0
2016-10-12T01:40:43.122Z,0
2016-10-12T01:41:54.049Z,0
2016-10-12T01:43:04.594Z,0
2016-10-12T01:44:15.115Z,0
2016-10-12T01:45:25.667Z,0
2016-10-12T01:46:36.214Z,0
2016-10-12T01:47:46.851Z,0
2016-10-12T01:48:57.398Z,0
2016-10-12T01:50:07.924Z,0
2016-10-12T01:51:18.508Z,0
2016-10-12T01:52:29.040Z,0
2016-10-12T01:53:39.826Z,0
2016-10-12T01:54:50.376Z,0
2016-10-12T01:56:00.895Z,0
2016-10-12T01:57:11.442Z,0
2016-10-12T01:58:22.465Z,0
2016-10-12T01:59:33.015Z,0
2016-10-12T02:00:43.605Z,0
2016-10-12T02:01:54.183Z,0
2016-10-12T02:03:04.726Z,0
2016-10-12T02:04:15.314Z,0
2016-10-12T02:05:25.947Z,0
2016-10-12T02:06:36.475Z,0
2016-10-12T02:07:47.360Z,0
2016-10-12T02:08:57.880Z,0
2016-10-12T02:10:08.413Z,0
2016-10-12T02:11:18.949Z,0
2016-10-12T02:12:29.522Z,0
2016-10-12T02:13:40.068Z,0
2016-10-12T02:14:50.629Z,0
2016-10-12T02:16:01.153Z,0
2016-10-12T02:17:11.800Z,0
2016-10-12T02:18:22.322Z,0
2016-10-12T02:19:32.841Z,0
2016-10-12T02:20:43.355Z,0
2016-10-12T02:21:53.865Z,0
2016-10-12T02:23:04.511Z,0
2016-10-12T02:24:15.052Z,0
2016-10-12T02:25:25.927Z,0
2016-10-12T02:26:36.838Z,0
2016-10-12T02:27:47.400Z,0
2016-10-12T02:28:58.445Z,0
2016-10-12T02:30:08.956Z,0
2016-10-12T02:31:19.532Z,0
2016-10-12T02:32:30.065Z,0
2016-10-12T02:33:40.629Z,0
2016-10-12T02:34:51.194Z,0
2016-10-12T02:36:01.750Z,0
2016-10-12T02:37:12.763Z,0
2016-10-12T02:38:23.279Z,0
2016-10-12T02:39:33.832Z,0
2016-10-12T02:40:44.521Z,0
2016-10-12T02:41:55.082Z,0
2016-10-12T02:43:06.050Z,0
2016-10-12T02:44:17.066Z,0
2016-10-12T02:45:27.992Z,0
2016-10-12T02:46:38.656Z,0
2016-10-12T02:47:49.697Z,0
2016-10-12T02:49:00.240Z,0
2016-10-12T02:50:10.812Z,0
2016-10-12T02:51:21.377Z,0
2016-10-12T02:52:32.007Z,0
2016-10-12T02:53:42.522Z,0
2016-10-12T02:54:53.074Z,0
2016-10-12T02:56:03.601Z,0
2016-10-12T02:57:14.180Z,0
2016-10-12T02:58:24.730Z,0
2016-10-12T02:59:35.256Z,0
2016-10-12T03:00:45.793Z,0
2016-10-12T03:01:56.336Z,0
2016-10-12T03:03:06.904Z,0
2016-10-12T03:04:18.004Z,0
2016-10-12T03:05:28.558Z,0
2016-10-12T03:06:39.122Z,0
2016-10-12T03:07:50.047Z,0
2016-10-12T03:09:00.625Z,0
2016-10-12T03:10:11.262Z,0
2016-10-12T03:11:22.208Z,0
2016-10-12T03:12:32.737Z,0
2016-10-12T03:13:43.248Z,0
2016-10-12T03:14:53.865Z,0
2016-10-12T03:16:04.939Z,0
2016-10-12T03:17:15.437Z,0
2016-10-12T03:18:25.963Z,0
2016-10-12T03:19:36.446Z,0
2016-10-12T03:20:47.005Z,0
2016-10-12T03:21:57.727Z,0
2016-10-12T03:23:08.285Z,0
2016-10-12T03:24:18.866Z,0
2016-10-12T03:25:29.386Z,0
2016-10-12T03:26:39.931Z,0
2016-10-12T03:27:50.931Z,0
2016-10-12T03:29:01.981Z,0
2016-10-12T03:30:12.996Z,0
2016-10-12T03:31:24.507Z,0
2016-10-12T03:32:35.052Z,0
2016-10-12T03:33:45.745Z,0
2016-10-12T03:34:56.791Z,0
2016-10-12T03:36:07.326Z,0
2016-10-12T03:37:18.347Z,0
2016-10-12T03:38:28.878Z,0
2016-10-12T03:39:39.938Z,0
2016-10-12T03:40:50.946Z,0
2016-10-12T03:42:01.961Z,0
2016-10-12T03:43:12.515Z,0
2016-10-12T03:44:24.086Z,0
2016-10-12T03:45:35.180Z,0
2016-10-12T03:46:45.696Z,0
2016-10-12T03:47:57.134Z,0
2016-10-12T03:49:08.141Z,0
2016-10-12T03:50:18.668Z,0
2016-10-12T03:51:29.328Z,0
2016-10-12T03:52:39.881Z,0
2016-10-12T03:53:50.883Z,0
2016-10-12T03:55:01.416Z,0
2016-10-12T03:56:11.973Z,0
2016-10-12T03:57:22.606Z,0
2016-10-12T03:58:33.517Z,0
2016-10-12T03:59:44.049Z,0
2016-10-12T04:00:55.125Z,0
2016-10-12T04:02:05.672Z,0
2016-10-12T04:03:16.230Z,0
2016-10-12T04:04:26.752Z,0
2016-10-12T04:05:37.340Z,0
2016-10-12T04:06:48.417Z,0
2016-10-12T04:07:59.445Z,0
2016-10-12T04:09:10.109Z,0
2016-10-12T04:10:21.629Z,0
2016-10-12T04:11:32.192Z,0
2016-10-12T04:12:42.748Z,0
2016-10-12T04:13:53.299Z,0
2016-10-12T04:15:03.903Z,0
2016-10-12T04:16:14.456Z,0
2016-10-12T04:17:25.004Z,0
2016-10-12T04:18:36.018Z,0
2016-10-12T04:19:46.591Z,0
2016-10-12T04:20:57.243Z,0
2016-10-12T04:22:07.784Z,0
2016-10-12T04:23:18.351Z,0
2016-10-12T04:24:28.939Z,0
2016-10-12T04:25:39.481Z,0
2016-10-12T04:26:50.011Z,0
2016-10-12T04:28:00.574Z,0
2016-10-12T04:29:11.092Z,0
2016-10-12T04:30:21.590Z,0
2016-10-12T04:31:32.120Z,0
2016-10-12T04:32:42.800Z,0
2016-10-12T04:33:53.385Z,0
2016-10-12T04:35:04.302Z,0
2016-10-12T04:36:14.853Z,0
2016-10-12T04:37:25.447Z,0
2016-10-12T04:38:36.093Z,0
2016-10-12T04:39:46.647Z,0
2016-10-12T04:40:57.173Z,0
2016-10-12T04:42:07.741Z,0
2016-10-12T04:43:18.316Z,0
2016-10-12T04:44:28.969Z,0
2016-10-12T04:45:39.527Z,0
2016-10-12T04:46:50.089Z,0
2016-10-12T04:48:00.605Z,0
2016-10-12T04:49:11.155Z,0
2016-10-12T04:50:21.686Z,0
2016-10-12T04:51:32.256Z,0
2016-10-12T04:52:42.790Z,0
2016-10-12T04:53:53.332Z,0
2016-10-12T04:55:03.918Z,0
2016-10-12T04:56:14.549Z,0
2016-10-12T04:57:25.569Z,0
2016-10-12T04:58:36.117Z,0
2016-10-12T04:59:46.630Z,0
2016-10-12T05:00:57.138Z,0
2016-10-12T05:02:07.780Z,0
2016-10-12T05:03:18.347Z,0
2016-10-12T05:04:29.361Z,0
2016-10-12T05:05:40.240Z,0
2016-10-12T05:06:50.735Z,0
2016-10-12T05:08:01.431Z,0
2016-10-12T05:09:11.965Z,0
2016-10-12T05:10:22.976Z,0
2016-10-12T05:11:33.508Z,0
2016-10-12T05:12:44.076Z,0
2016-10-12T05:13:54.698Z,0
2016-10-12T05:15:05.675Z,0
2016-10-12T05:16:16.205Z,0
2016-10-12T05:17:26.780Z,0
2016-10-12T05:18:37.318Z,0
2016-10-12T05:19:48.067Z,0
2016-10-12T05:20:58.603Z,0
2016-10-12T05:22:09.145Z,0
2016-10-12T05:23:19.693Z,0
2016-10-12T05:24:30.250Z,0
2016-10-12T05:25:40.875Z,0
2016-10-12T05:26:51.899Z,0
2016-10-12T05:28:02.486Z,0
2016-10-12T05:29:12.996Z,0
2016-10-12T05:30:23.537Z,0
2016-10-12T05:31:34.241Z,0
2016-10-12T05:32:44.818Z,0
2016-10-12T05:33:55.404Z,0
2016-10-12T05:35:05.957Z,0
2016-10-12T05:36:16.473Z,0
2016-10-12T05:37:27.160Z,0
2016-10-12T05:38:37.703Z,0
2016-10-12T05:39:48.203Z,0
2016-10-12T05:40:58.916Z,0
2016-10-12T05:42:09.443Z,0
2016-10-12T05:43:20.160Z,0
2016-10-12T05:44:30.725Z,0
2016-10-12T05:45:41.251Z,0
2016-10-12T05:46:51.814Z,0
2016-10-12T05:48:02.338Z,0
2016-10-12T05:49:13.014Z,0
2016-10-12T05:50:23.576Z,0
2016-10-12T05:51:34.101Z,0
2016-10-12T05:52:44.660Z,0
2016-10-12T05:53:55.192Z,0
2016-10-12T05:55:06.153Z,0
2016-10-12T05:56:17.168Z,0
2016-10-12T05:57:27.752Z,0
2016-10-12T05:58:38.325Z,0
2016-10-12T05:59:49.234Z,0
2016-10-12T06:00:59.974Z,0
2016-10-12T06:02:10.539Z,0
2016-10-12T06:03:21.493Z,0
2016-10-12T06:04:32.016Z,0
2016-10-12T06:05:42.560Z,0
2016-10-12T06:06:53.283Z,0
2016-10-12T06:08:03.827Z,0
2016-10-12T06:09:14.362Z,0
2016-10-12T06:10:24.948Z,0
2016-10-12T06:11:35.482Z,0
2016-10-12T06:12:46.116Z,0
2016-10-12T06:13:56.676Z,0
2016-10-12T06:15:07.200Z,0
2016-10-12T06:16:17.733Z,0
2016-10-12T06:17:28.601Z,0
2016-10-12T06:18:39.155Z,0
2016-10-12T06:19:49.690Z,0
2016-10-12T06:21:00.264Z,0
2016-10-12T06:22:10.865Z,0
2016-10-12T06:23:21.380Z,0
2016-10-12T06:24:31.992Z,0
2016-10-12T06:25:42.568Z,0
2016-10-12T06:26:53.112Z,0
2016-10-12T06:28:04.155Z,0
2016-10-12T06:29:14.705Z,0
2016-10-12T06:30:25.828Z,0
2016-10-12T06:31:36.377Z,0
2016-10-12T06:32:46.947Z,0
2016-10-12T06:33:58.385Z,0
2016-10-12T06:35:08.951Z,0
2016-10-12T06:36:19.593Z,0
2016-10-12T06:37:30.140Z,0
2016-10-12T06:38:41.051Z,0
2016-10-12T06:39:51.989Z,0
2016-10-12T06:41:02.927Z,0
2016-10-12T06:42:13.479Z,0
2016-10-12T06:43:23.992Z,0
2016-10-12T06:44:34.552Z,0
2016-10-12T06:45:45.100Z,0
2016-10-12T06:46:55.571Z,0
2016-10-12T06:48:06.219Z,0
2016-10-12T06:49:16.734Z,0
2016-10-12T06:50:27.245Z,0
2016-10-12T06:51:37.739Z,0
2016-10-12T06:52:48.312Z,0
2016-10-12T06:53:59.392Z,0
2016-10-12T06:55:09.959Z,0
2016-10-12T06:56:20.527Z,0
2016-10-12T06:57:31.026Z,0
2016-10-12T06:58:41.516Z,0
2016-10-12T06:59:52.149Z,0
2016-10-12T07:01:02.706Z,0
2016-10-12T07:02:13.757Z,0
2016-10-12T07:03:24.267Z,0
2016-10-12T07:04:34.757Z,0
2016-10-12T07:05:45.235Z,0
2016-10-12T07:06:55.700Z,0
2016-10-12T07:08:06.247Z,0
2016-10-12T07:09:16.762Z,0
2016-10-12T07:10:27.292Z,0
2016-10-12T07:11:38.312Z,0
2016-10-12T07:12:48.864Z,0
2016-10-12T07:13:59.422Z,0
2016-10-12T07:15:09.928Z,0
2016-10-12T07:16:20.925Z,0
2016-10-12T07:17:31.546Z,0
2016-10-12T07:18:42.063Z,0
2016-10-12T07:19:52.580Z,0
2016-10-12T07:21:03.110Z,0
2016-10-12T07:22:13.648Z,0
2016-10-12T07:23:24.535Z,0
2016-10-12T07:24:35.052Z,0
2016-10-12T07:25:45.594Z,0
2016-10-12T07:26:56.084Z,0
2016-10-12T07:28:06.982Z,0
2016-10-12T07:29:17.629Z,0
2016-10-12T07:30:28.163Z,0
2016-10-12T07:31:38.650Z,0
2016-10-12T07:32:49.184Z,0
2016-10-12T07:34:00.169Z,0
2016-10-12T07:35:10.762Z,0
2016-10-12T07:36:21.279Z,0
2016-10-12T07:37:31.755Z,0
2016-10-12T07:38:42.244Z,0
2016-10-12T07:39:52.731Z,0
2016-10-12T07:41:03.314Z,0
2016-10-12T07:42:13.858Z,0
2016-10-12T07:43:24.831Z,0
2016-10-12T07:44:35.354Z,0
2016-10-12T07:45:45.834Z,0
2016-10-12T07:46:56.358Z,0
2016-10-12T07:48:06.878Z,0
2016-10-12T07:49:17.356Z,0
2016-10-12T07:50:27.867Z,0
2016-10-12T07:51:38.377Z,0
2016-10-12T07:52:48.953Z,0
2016-10-12T07:53:59.448Z,0
2016-10-12T07:55:09.959Z,0
2016-10-12T07:56:20.485Z,0
2016-10-12T07:57:31.059Z,0
2016-10-12T07:58:41.664Z,0
2016-10-12T07:59:52.139Z,0
2016-10-12T08:01:02.628Z,0
2016-10-12T08:02:13.213Z,0
2016-10-12T08:03:24.641Z,0
2016-10-12T08:04:35.223Z,0
2016-10-12T08:05:45.693Z,0
2016-10-12T08:06:56.181Z,0
2016-10-12T08:08:06.671Z,0
2016-10-12T08:09:17.137Z,0
2016-10-12T08:10:27.643Z,0
2016-10-12T08:11:38.158Z,0
2016-10-12T08:12:48.665Z,0
2016-10-12T08:13:59.579Z,0
2016-10-12T08:15:10.107Z,0
2016-10-12T08:16:20.729Z,0
2016-10-12T08:17:31.254Z,0
2016-10-12T08:18:41.745Z,0
2016-10-12T08:19:52.302Z,0
2016-10-12T08:21:02.797Z,0
2016-10-12T08:22:13.372Z,0
2016-10-12T08:23:23.861Z,0
2016-10-12T08:24:34.383Z,0
2016-10-12T08:25:44.897Z,0
2016-10-12T08:26:55.409Z,0
2016-10-12T08:28:06.009Z,0
2016-10-12T08:29:16.516Z,0
2016-10-12T08:30:27.043Z,5
2016-10-12T08:31:37.580Z,5
2016-10-12T08:32:48.047Z,5
2016-10-12T08:33:58.575Z,5
2016-10-12T08:35:09.442Z,10
2016-10-12T08:36:19.970Z,10
2016-10-12T08:37:30.456Z,10
2016-10-12T08:38:40.923Z,15
2016-10-12T08:39:51.529Z,15
2016-10-12T08:41:02.014Z,20
2016-10-12T08:42:12.495Z,20
2016-10-12T08:43:22.969Z,25
2016-10-12T08:44:33.452Z,30
2016-10-12T08:45:44.025Z,30
2016-10-12T08:46:54.570Z,35
2016-10-12T08:48:05.094Z,35
2016-10-12T08:49:15.644Z,40
2016-10-12T08:50:26.168Z,45
2016-10-12T08:51:36.767Z,50
2016-10-12T08:52:47.257Z,55
2016-10-12T08:53:57.764Z,55
2016-10-12T08:55:08.235Z,60
2016-10-12T08:56:18.738Z,65
2016-10-12T08:57:29.286Z,70
2016-10-12T08:58:39.830Z,75
2016-10-12T08:59:50.341Z,80
2016-10-12T09:01:00.835Z,85
2016-10-12T09:02:11.331Z,85
2016-10-12T09:03:22.296Z,95
2016-10-12T09:04:32.788Z,95
2016-10-12T09:05:43.279Z,100
2016-10-12T09:06:53.750Z,105
2016-10-12T09:08:04.757Z,110
2016-10-12T09:09:15.373Z,115
2016-10-12T09:10:25.909Z,120
2016-10-12T09:11:36.380Z,125
2016-10-12T09:12:46.880Z,125
2016-10-12T09:13:57.470Z,125
2016-10-12T09:15:07.997Z,130
2016-10-12T09:16:18.523Z,135
2016-10-12T09:17:28.996Z,140
2016-10-12T09:18:39.463Z,150
2016-10-12T09:19:50.348Z,155
2016-10-12T09:21:00.934Z,165
2016-10-12T09:22:11.417Z,165
2016-10-12T09:23:21.956Z,170
2016-10-12T09:24:32.451Z,175
2016-10-12T09:25:43.022Z,180
2016-10-12T09:26:53.984Z,185
2016-10-12T09:28:04.502Z,190
2016-10-12T09:29:14.975Z,195
2016-10-12T09:30:25.485Z,200
2016-10-12T09:31:35.981Z,210
2016-10-12T09:32:46.617Z,215
2016-10-12T09:33:57.104Z,215
2016-10-12T09:35:07.616Z,220
2016-10-12T09:36:18.103Z,230
2016-10-12T09:37:28.563Z,225
2016-10-12T09:38:39.082Z,230
2016-10-12T09:39:49.550Z,240
2016-10-12T09:41:00.078Z,240
2016-10-12T09:42:10.580Z,245
2016-10-12T09:43:21.067Z,260
2016-10-12T09:44:31.660Z,260
2016-10-12T09:45:42.128Z,265
2016-10-12T09:46:52.637Z,275
2016-10-12T09:48:03.137Z,420
2016-10-12T09:49:14.099Z,675
2016-10-12T09:50:25.053Z,740
2016-10-12T09:51:35.616Z,745
2016-10-12T09:52:46.131Z,790
2016-10-12T09:53:56.646Z,765
2016-10-12T09:55:07.136Z,795
2016-10-12T09:56:17.753Z,795
2016-10-12T09:57:28.288Z,840
2016-10-12T09:58:38.799Z,805
2016-10-12T09:59:49.297Z,780
2016-10-12T10:00:59.824Z,850
2016-10-12T10:02:10.309Z,860
2016-10-12T10:03:20.780Z,905
2016-10-12T10:04:31.659Z,915
2016-10-12T10:05:42.574Z,955
2016-10-12T10:06:53.080Z,955
2016-10-12T10:08:03.716Z,905
2016-10-12T10:09:14.213Z,1015
2016-10-12T10:10:37.687Z,1050
2016-10-12T10:11:48.172Z,1020
2016-10-12T10:12:58.788Z,1050
2016-10-12T10:14:09.300Z,1065
2016-10-12T10:15:19.811Z,1060
2016-10-12T10:16:30.774Z,1070
2016-10-12T10:17:41.286Z,1090
2016-10-12T10:18:51.908Z,1120
2016-10-12T10:20:02.438Z,1140
2016-10-12T10:21:12.949Z,1060
2016-10-12T10:22:23.485Z,1100
2016-10-12T10:23:34.014Z,1105
2016-10-12T10:24:44.553Z,1105
2016-10-12T10:25:55.118Z,1110
2016-10-12T10:27:05.638Z,1100
2016-10-12T10:28:16.225Z,1145
2016-10-12T10:29:26.787Z,1125
2016-10-12T10:30:37.464Z,1130
2016-10-12T10:31:48.017Z,1130
2016-10-12T10:32:58.610Z,1145
2016-10-12T10:34:09.120Z,1175
2016-10-12T10:35:20.028Z,1240
2016-10-12T10:36:30.718Z,1195
2016-10-12T10:37:41.264Z,1165
2016-10-12T10:38:51.828Z,1260
2016-10-12T10:40:02.369Z,1115
2016-10-12T10:41:12.896Z,1115
2016-10-12T10:42:23.615Z,1095
2016-10-12T10:43:34.190Z,1060
2016-10-12T10:44:44.794Z,1050
2016-10-12T10:45:55.313Z,870
2016-10-12T10:47:05.880Z,810
2016-10-12T10:48:16.960Z,820
2016-10-12T10:49:27.542Z,885
2016-10-12T10:50:38.110Z,860
2016-10-12T10:51:48.638Z,880
2016-10-12T10:52:59.203Z,895
2016-10-12T10:54:09.750Z,1025
2016-10-12T10:55:20.317Z,1235
2016-10-12T10:56:30.882Z,1380
2016-10-12T10:57:41.457Z,1350
2016-10-12T10:58:52.000Z,1380
2016-10-12T11:00:02.698Z,1610
2016-10-12T11:01:13.587Z,1650
2016-10-12T11:02:24.136Z,1515
2016-10-12T11:03:34.695Z,1465
2016-10-12T11:04:45.275Z,1480
2016-10-12T11:05:56.257Z,1520
2016-10-12T11:07:06.814Z,1600
2016-10-12T11:08:17.369Z,1600
2016-10-12T11:09:27.938Z,1630
2016-10-12T11:10:38.513Z,1575
2016-10-12T11:11:49.206Z,1615
2016-10-12T11:12:59.760Z,1625
2016-10-12T11:14:10.350Z,1585
2016-10-12T11:15:20.914Z,1550
2016-10-12T11:16:31.481Z,1580
2016-10-12T11:17:42.044Z,1635
2016-10-12T11:18:52.636Z,1720
2016-10-12T11:20:03.252Z,1690
2016-10-12T11:21:13.820Z,1670
2016-10-12T11:22:24.368Z,1680
2016-10-12T11:23:35.120Z,1750
2016-10-12T11:24:45.689Z,1735
2016-10-12T11:25:56.260Z,1740
2016-10-12T11:27:06.809Z,1700
2016-10-12T11:28:17.353Z,1770
2016-10-12T11:29:28.056Z,1755
2016-10-12T11:30:38.656Z,1820
2016-10-12T11:31:49.179Z,1840
2016-10-12T11:32:59.713Z,1780
2016-10-12T11:34:10.261Z,1960
2016-10-12T11:35:20.838Z,1920
2016-10-12T11:36:31.357Z,1890
2016-10-12T11:37:41.925Z,1845
2016-10-12T11:38:52.508Z,1890
2016-10-12T11:40:03.087Z,1915
2016-10-12T11:41:13.789Z,1920
2016-10-12T11:42:24.361Z,1825
2016-10-12T11:43:34.935Z,1810
2016-10-12T11:44:45.461Z,1880
2016-10-12T11:45:56.059Z,1925
2016-10-12T11:47:07.192Z,1895
2016-10-12T11:48:17.805Z,1935
2016-10-12T11:49:28.368Z,1935
2016-10-12T11:50:38.932Z,1940
2016-10-12T11:51:49.507Z,1880
2016-10-12T11:53:00.155Z,1830
2016-10-12T11:54:10.684Z,1775
2016-10-12T11:55:21.739Z,1850
2016-10-12T11:56:32.342Z,1935
2016-10-12T11:57:42.958Z,1960
2016-10-12T11:58:53.499Z,1910
2016-10-12T12:00:04.015Z,1970
2016-10-12T12:01:14.627Z,1935
2016-10-12T12:02:25.158Z,2000
2016-10-12T12:03:35.734Z,1935
2016-10-12T12:04:46.332Z,1965
2016-10-12T12:05:57.207Z,1975
2016-10-12T12:07:07.741Z,2010
2016-10-12T12:08:18.263Z,1940
2016-10-12T12:09:28.750Z,1905
2016-10-12T12:10:40.219Z,1955
2016-10-12T12:11:50.718Z,1900
2016-10-12T12:13:01.273Z,1890
2016-10-12T12:14:13.094Z,1870
2016-10-12T12:15:23.590Z,1940
2016-10-12T12:16:34.216Z,1905
2016-10-12T12:17:45.213Z,1995
2016-10-12T12:18:55.729Z,2015
2016-10-12T12:20:06.298Z,2045
2016-10-12T12:21:16.869Z,2035
2016-10-12T12:22:27.427Z,1980
2016-10-12T12:23:37.954Z,2040
2016-10-12T12:24:48.486Z,2075
2016-10-12T12:25:58.978Z,2020
2016-10-12T12:27:09.486Z,2110
2016-10-12T12:28:20.080Z,2140
2016-10-12T12:29:31.140Z,2060
2016-10-12T12:30:41.677Z,2145
2016-10-12T12:31:52.972Z,2165
2016-10-12T12:33:03.479Z,2185
2016-10-12T12:34:14.106Z,2085
2016-10-12T12:35:24.643Z,2115
2016-10-12T12:36:35.215Z,2110
2016-10-12T12:37:45.706Z,2015
2016-10-12T12:38:56.250Z,2160
2016-10-12T12:40:06.886Z,2120
2016-10-12T12:41:17.463Z,1835
2016-10-12T12:42:28.013Z,1260
2016-10-12T12:43:38.599Z,1185
2016-10-12T12:44:49.149Z,1190
2016-10-12T12:46:00.201Z,1230
2016-10-12T12:47:11.195Z,1245
2016-10-12T12:48:21.751Z,1290
2016-10-12T12:49:32.304Z,1315
2016-10-12T12:50:43.324Z,1410
2016-10-12T12:51:54.027Z,1590
2016-10-12T12:53:04.598Z,1465
2016-10-12T12:54:15.125Z,1840
2016-10-12T12:55:25.720Z,1690
2016-10-12T12:56:36.303Z,1415
2016-10-12T12:57:46.877Z,1485
2016-10-12T12:58:57.458Z,2100
2016-10-12T13:00:08.060Z,2135
2016-10-12T13:01:18.644Z,2315
2016-10-12T13:02:29.197Z,2300
2016-10-12T13:03:40.265Z,2250
2016-10-12T13:04:50.821Z,2285
2016-10-12T13:06:01.404Z,2225
2016-10-12T13:07:11.998Z,2260
2016-10-12T13:08:22.586Z,2300
2016-10-12T13:09:33.168Z,2425
2016-10-12T13:10:43.728Z,2375
2016-10-12T13:11:54.317Z,2270
2016-10-12T13:13:04.897Z,2220
2016-10-12T13:14:15.470Z,2335
2016-10-12T13:15:26.159Z,2360
2016-10-12T13:16:36.707Z,2355
2016-10-12T13:17:47.263Z,2210
2016-10-12T13:18:57.840Z,2375
2016-10-12T13:20:08.380Z,2310
2016-10-12T13:21:19.023Z,2310
2016-10-12T13:22:29.602Z,2380
2016-10-12T13:23:40.201Z,2380
2016-10-12T13:24:50.769Z,2300
2016-10-12T13:26:01.306Z,2150
2016-10-12T13:27:12.013Z,2135
2016-10-12T13:28:22.587Z,2215
2016-10-12T13:29:33.126Z,2375
2016-10-12T13:30:43.695Z,2365
2016-10-12T13:31:54.239Z,2260
2016-10-12T13:33:04.821Z,2435
2016-10-12T13:34:15.356Z,2415
2016-10-12T13:35:25.925Z,2405
2016-10-12T13:36:36.461Z,2360
2016-10-12T13:37:47.026Z,2270
2016-10-12T13:38:57.685Z,2295
2016-10-12T13:40:08.730Z,2380
2016-10-12T13:41:19.291Z,2285
2016-10-12T13:42:29.827Z,2410
2016-10-12T13:43:40.374Z,2360
2016-10-12T13:44:51.071Z,2390
2016-10-12T13:46:01.678Z,2440
2016-10-12T13:47:12.281Z,2410
2016-10-12T13:48:22.913Z,2435
2016-10-12T13:49:33.518Z,2405
2016-10-12T13:50:44.217Z,2345
2016-10-12T13:51:54.814Z,2395
2016-10-12T13:53:05.411Z,2455
2016-10-12T13:54:16.011Z,2355
2016-10-12T13:55:26.999Z,2320
2016-10-12T13:56:37.606Z,2315
2016-10-12T13:57:48.211Z,2295
2016-10-12T13:58:58.799Z,2295
2016-10-12T14:00:09.398Z,2450
2016-10-12T14:01:19.988Z,2460
2016-10-12T14:02:30.699Z,2400
2016-10-12T14:03:41.298Z,2435
2016-10-12T14:04:51.917Z,2355
2016-10-12T14:06:02.522Z,2420
2016-10-12T14:07:13.141Z,2460
2016-10-12T14:08:23.846Z,2330
2016-10-12T14:09:34.462Z,2380
2016-10-12T14:10:45.081Z,2425
2016-10-12T14:11:55.683Z,2325
2016-10-12T14:13:06.282Z,2405
2016-10-12T14:14:16.975Z,2440
2016-10-12T14:15:27.571Z,2395
2016-10-12T14:16:38.188Z,2445
2016-10-12T14:17:48.783Z,2445
2016-10-12T14:18:59.376Z,2275
2016-10-12T14:20:09.972Z,2415
2016-10-12T14:21:20.565Z,2465
2016-10-12T14:22:31.158Z,2340
2016-10-12T14:23:41.740Z,2345
2016-10-12T14:24:52.304Z,2425
2016-10-12T14:26:02.913Z,2480
2016-10-12T14:27:13.518Z,2405
2016-10-12T14:28:24.061Z,2345
2016-10-12T14:29:34.637Z,2450
2016-10-12T14:30:45.220Z,2450
2016-10-12T14:31:55.867Z,2380
2016-10-12T14:33:06.763Z,2405
2016-10-12T14:34:17.294Z,2315
2016-10-12T14:35:27.828Z,2410
2016-10-12T14:36:38.383Z,2315
2016-10-12T14:37:49.116Z,2285
2016-10-12T14:38:59.667Z,2375
2016-10-12T14:40:10.233Z,2315
2016-10-12T14:41:20.783Z,2365
2016-10-12T14:42:31.304Z,2405
2016-10-12T14:43:41.977Z,2220
2016-10-12T14:44:52.575Z,2255
2016-10-12T14:46:03.122Z,2420
2016-10-12T14:47:13.634Z,2500
2016-10-12T14:48:24.193Z,2385
2016-10-12T14:49:34.893Z,2190
2016-10-12T14:50:45.919Z,2310
2016-10-12T14:51:56.519Z,2355
2016-10-12T14:53:07.064Z,2355
2016-10-12T14:54:17.661Z,2185
2016-10-12T14:55:28.405Z,2130
2016-10-12T14:56:38.931Z,2235
2016-10-12T14:57:49.464Z,2140
2016-10-12T14:58:59.976Z,2185
2016-10-12T15:00:10.540Z,2300
2016-10-12T15:01:21.113Z,2225
2016-10-12T15:02:31.715Z,550
2016-10-12T15:03:42.755Z,2215
2016-10-12T15:04:53.323Z,2115
2016-10-12T15:06:03.891Z,2245
2016-10-12T15:07:14.552Z,2225
2016-10-12T15:08:25.097Z,2260
2016-10-12T15:09:35.669Z,2220
2016-10-12T15:10:46.249Z,2265
2016-10-12T15:11:56.750Z,2205
2016-10-12T15:13:07.427Z,2120
2016-10-12T15:14:18.481Z,2190
2016-10-12T15:15:29.074Z,2085
2016-10-12T15:16:39.592Z,2165
2016-10-12T15:17:50.147Z,2140
2016-10-12T15:19:00.922Z,2050
2016-10-12T15:20:11.465Z,2140
2016-10-12T15:21:22.012Z,2215
2016-10-12T15:22:32.576Z,2235
2016-10-12T15:23:43.645Z,720
2016-10-12T15:24:54.277Z,2290
2016-10-12T15:26:04.821Z,685
2016-10-12T15:27:15.352Z,2365
2016-10-12T15:28:25.916Z,1000
2016-10-12T15:29:36.480Z,655
2016-10-12T15:30:47.121Z,2195
2016-10-12T15:31:57.711Z,2095
2016-10-12T15:33:08.689Z,1995
2016-10-12T15:34:19.297Z,2000
2016-10-12T15:35:29.897Z,2150
2016-10-12T15:36:41.040Z,2290
2016-10-12T15:37:52.085Z,2350
2016-10-12T15:39:02.660Z,2270
2016-10-12T15:40:13.216Z,2350
2016-10-12T15:41:23.791Z,2250
2016-10-12T15:42:34.516Z,2185
2016-10-12T15:43:45.085Z,2140
2016-10-12T15:44:55.643Z,2145
2016-10-12T15:46:06.205Z,2060
2016-10-12T15:47:16.778Z,2110
2016-10-12T15:48:27.371Z,2140
2016-10-12T15:49:37.954Z,2130
2016-10-12T15:50:48.520Z,2140
2016-10-12T15:51:59.088Z,2000
2016-10-12T15:53:09.651Z,2000
2016-10-12T15:54:20.403Z,2025
2016-10-12T15:55:31.016Z,1920
2016-10-12T15:56:42.089Z,2035
2016-10-12T15:57:53.047Z,780
2016-10-12T15:59:03.614Z,2090
2016-10-12T16:00:14.248Z,430
2016-10-12T16:01:25.225Z,370
2016-10-12T16:02:35.757Z,375
2016-10-12T16:03:46.291Z,365
2016-10-12T16:04:56.822Z,365
2016-10-12T16:06:07.486Z,400
2016-10-12T16:07:18.044Z,480
2016-10-12T16:08:28.581Z,1525
2016-10-12T16:09:39.196Z,1940
2016-10-12T16:10:49.778Z,2250
2016-10-12T16:12:00.523Z,815
2016-10-12T16:13:11.086Z,2090
2016-10-12T16:14:21.616Z,1985
2016-10-12T16:15:32.176Z,1910
2016-10-12T16:16:42.708Z,595
2016-10-12T16:17:53.377Z,2110
2016-10-12T16:19:04.368Z,1420
2016-10-12T16:20:14.894Z,565
2016-10-12T16:21:25.474Z,1955
2016-10-12T16:22:36.015Z,2060
2016-10-12T16:23:46.679Z,600
2016-10-12T16:24:57.627Z,605
2016-10-12T16:26:08.210Z,2085
2016-10-12T16:27:18.786Z,2045
2016-10-12T16:28:29.352Z,1950
2016-10-12T16:29:40.053Z,1905
2016-10-12T16:30:50.602Z,1960
2016-10-12T16:32:01.194Z,530
2016-10-12T16:33:11.772Z,525
2016-10-12T16:34:22.332Z,625
2016-10-12T16:35:33.465Z,2085
2016-10-12T16:36:44.025Z,685
2016-10-12T16:37:54.557Z,2015